Meteo Giornale » Osservazioni meteo Stati Uniti (USA) » Paris-Cox Fld
ore: 20:55 - Osservazioni Meteo Paris-Cox Fld
Lat. 33° 38' N Lon. 95° 27' W Alt. 167 metri s.l.m.
31 °C
Sereno
Temp. 24 Ore
24 °C
38 °C
Est/Sud-Est
13 Km/h
Dew point 19 °C
Umidità 48 %
Visibilità 10 Km
Il sole sorge alle ore 06:55
Il sole tramonta alle ore 19:48
| Data e Ora | Cielo e Fenomeni | T °C | DP °C | Um. % | Pres. hPa | Vis. km | Vento km/h | |
|---|---|---|---|---|---|---|---|---|
| Oggi h: 20:55 | Sereno | 31 | 19 | 48 | 1014 | 10 | E/SE 13 | |
| Oggi h: 19:55 | Sereno | 33 | 18 | 41 | 1014 | 10 | SE 13 | |
| Oggi h: 18:55 | Sereno | 36 | 18 | 34 | 1014 | 10 | E/SE 16.7 | |
| Oggi h: 17:55 | Sereno | 36 | 18 | 34 | 1014 | 14 | E/SE 14.8 | |
| Oggi h: 16:55 | Sereno | 38 | 18 | 31 | 1014 | 10 | S 18.5 | |
| Oggi h: 15:55 | Sereno | 37 | 19 | 35 | 1015 | 10 | E 16.7 | |
| Oggi h: 14:55 | Sereno | 38 | 17 | 29 | 1016 | 10 | S 9.3 | |
| Oggi h: 13:55 | Sereno | 37 | 18 | 32 | 1016 | 10 | S 16.7 | |
| Oggi h: 12:55 | Sereno | 36 | 19 | 36 | 1017 | 10 | N 0 | |
| Oggi h: 11:55 | Sereno | 35 | 19 | 39 | 1018 | 10 | N 5.5 | |
| Oggi h: 10:55 | Sereno | 34 | 19 | 41 | 1018 | 10 | O/SO 9.3 | |
| Oggi h: 09:55 | Sereno | 32 | 21 | 52 | 1018 | 10 | SO 9.3 | |
| Oggi h: 08:55 | Sereno | 29 | 21 | 62 | 1017 | 10 | S/SO 9.3 | |
| Oggi h: 07:55 | Sereno | 27 | 20 | 65 | 1017 | 10 | S/SO 9.3 | |
| Oggi h: 06:55 | Sereno | 24 | 19 | 73 | 1016 | 10 | S 9.3 | |
| Oggi h: 05:55 | Sereno | 26 | 19 | 65 | 1016 | 10 | S/SO 9.3 | |
| Oggi h: 04:55 | Sereno | 26 | 19 | 65 | 1015 | 10 | S/SE 9.3 | |
| Oggi h: 03:55 | Sereno | 26 | 19 | 65 | 1015 | 10 | SE 9.3 | |
| Oggi h: 01:55 | Sereno | 27 | 19 | 61 | 1015 | 10 | E/SE 14.8 | |
| Oggi h: 00:55 | Sereno | 28 | 19 | 58 | 1015 | 10 | SE 14.8 | |
| Ieri h: 23:55 | Sereno | 28 | 19 | 58 | 1015 | 10 | SE 13 | |
| Ieri h: 22:55 | Sereno | 30 | 19 | 51 | 1015 | 10 | E/SE 11.1 | |



